sensor_id;sensor_type;location;lat;lon;timestamp;P1;durP1;ratioP1;P2;durP2;ratioP2
9409;SDS011;4744;52.576;13.568;2022-11-23T00:01:54;40.83;;;22.48;;
9409;SDS011;4744;52.576;13.568;2022-11-23T00:04:21;40.83;;;22.67;;
9409;SDS011;4744;52.576;13.568;2022-11-23T00:06:49;43.03;;;22.38;;
9409;SDS011;4744;52.576;13.568;2022-11-23T00:09:16;39.70;;;21.67;;
9409;SDS011;4744;52.576;13.568;2022-11-23T00:11:43;41.50;;;22.15;;
9409;SDS011;4744;52.576;13.568;2022-11-23T00:14:12;38.58;;;22.08;;
9409;SDS011;4744;52.576;13.568;2022-11-23T00:16:39;40.08;;;21.42;;
9409;SDS011;4744;52.576;13.568;2022-11-23T00:19:06;43.45;;;21.83;;
9409;SDS011;4744;52.576;13.568;2022-11-23T00:21:34;41.28;;;22.75;;
9409;SDS011;4744;52.576;13.568;2022-11-23T00:24:01;41.17;;;23.10;;
9409;SDS011;4744;52.576;13.568;2022-11-23T00:26:28;41.63;;;21.63;;
9409;SDS011;4744;52.576;13.568;2022-11-23T00:28:55;40.40;;;23.13;;
9409;SDS011;4744;52.576;13.568;2022-11-23T00:31:23;38.20;;;21.43;;
9409;SDS011;4744;52.576;13.568;2022-11-23T00:33:50;42.80;;;21.35;;
9409;SDS011;4744;52.576;13.568;2022-11-23T00:36:19;40.58;;;22.05;;
9409;SDS011;4744;52.576;13.568;2022-11-23T00:38:47;40.88;;;21.25;;
9409;SDS011;4744;52.576;13.568;2022-11-23T00:41:15;39.42;;;22.63;;
9409;SDS011;4744;52.576;13.568;2022-11-23T00:43:44;39.92;;;22.33;;
9409;SDS011;4744;52.576;13.568;2022-11-23T00:46:11;44.33;;;22.75;;
9409;SDS011;4744;52.576;13.568;2022-11-23T00:48:41;40.65;;;23.13;;
9409;SDS011;4744;52.576;13.568;2022-11-23T00:51:09;39.97;;;22.70;;
9409;SDS011;4744;52.576;13.568;2022-11-23T00:53:37;45.47;;;23.02;;
9409;SDS011;4744;52.576;13.568;2022-11-23T00:56:05;41.40;;;23.70;;
9409;SDS011;4744;52.576;13.568;2022-11-23T00:58:32;40.25;;;22.77;;
9409;SDS011;4744;52.576;13.568;2022-11-23T01:01:03;44.72;;;22.75;;
9409;SDS011;4744;52.576;13.568;2022-11-23T01:03:32;43.17;;;22.02;;
9409;SDS011;4744;52.576;13.568;2022-11-23T01:06:02;44.45;;;23.80;;
9409;SDS011;4744;52.576;13.568;2022-11-23T01:08:30;42.33;;;22.83;;
9409;SDS011;4744;52.576;13.568;2022-11-23T01:10:58;46.92;;;23.90;;
9409;SDS011;4744;52.576;13.568;2022-11-23T01:13:26;38.97;;;22.67;;
9409;SDS011;4744;52.576;13.568;2022-11-23T01:15:53;40.15;;;23.15;;
9409;SDS011;4744;52.576;13.568;2022-11-23T01:18:20;41.53;;;22.65;;
9409;SDS011;4744;52.576;13.568;2022-11-23T01:20:47;43.00;;;22.95;;
9409;SDS011;4744;52.576;13.568;2022-11-23T01:23:16;42.97;;;24.17;;
9409;SDS011;4744;52.576;13.568;2022-11-23T01:25:42;40.40;;;22.70;;
9409;SDS011;4744;52.576;13.568;2022-11-23T01:28:10;42.88;;;23.38;;
9409;SDS011;4744;52.576;13.568;2022-11-23T01:30:36;41.47;;;22.33;;
9409;SDS011;4744;52.576;13.568;2022-11-23T01:33:03;42.88;;;23.25;;
9409;SDS011;4744;52.576;13.568;2022-11-23T01:35:30;46.10;;;23.02;;
9409;SDS011;4744;52.576;13.568;2022-11-23T01:37:57;45.17;;;23.67;;
9409;SDS011;4744;52.576;13.568;2022-11-23T01:40:26;41.25;;;23.05;;
9409;SDS011;4744;52.576;13.568;2022-11-23T01:42:53;37.90;;;21.75;;
9409;SDS011;4744;52.576;13.568;2022-11-23T01:45:33;38.60;;;22.60;;
9409;SDS011;4744;52.576;13.568;2022-11-23T01:48:02;39.58;;;23.05;;
9409;SDS011;4744;52.576;13.568;2022-11-23T01:50:34;47.63;;;23.85;;
9409;SDS011;4744;52.576;13.568;2022-11-23T01:53:01;41.08;;;23.48;;
9409;SDS011;4744;52.576;13.568;2022-11-23T01:55:29;44.15;;;22.48;;
9409;SDS011;4744;52.576;13.568;2022-11-23T01:57:56;42.38;;;22.55;;
9409;SDS011;4744;52.576;13.568;2022-11-23T02:00:23;41.53;;;23.63;;
9409;SDS011;4744;52.576;13.568;2022-11-23T02:02:52;43.70;;;23.50;;
9409;SDS011;4744;52.576;13.568;2022-11-23T02:05:22;40.00;;;22.75;;
9409;SDS011;4744;52.576;13.568;2022-11-23T02:07:52;41.42;;;22.70;;
9409;SDS011;4744;52.576;13.568;2022-11-23T02:10:20;44.55;;;23.52;;
9409;SDS011;4744;52.576;13.568;2022-11-23T02:12:49;40.45;;;22.90;;
9409;SDS011;4744;52.576;13.568;2022-11-23T02:15:17;38.03;;;21.85;;
9409;SDS011;4744;52.576;13.568;2022-11-23T02:17:44;40.92;;;22.05;;
9409;SDS011;4744;52.576;13.568;2022-11-23T02:20:12;41.85;;;22.95;;
9409;SDS011;4744;52.576;13.568;2022-11-23T02:22:42;39.45;;;22.33;;
9409;SDS011;4744;52.576;13.568;2022-11-23T02:25:18;39.83;;;21.48;;
9409;SDS011;4744;52.576;13.568;2022-11-23T02:27:56;35.55;;;21.95;;
9409;SDS011;4744;52.576;13.568;2022-11-23T02:30:24;38.60;;;21.60;;
9409;SDS011;4744;52.576;13.568;2022-11-23T02:32:51;36.53;;;21.85;;
9409;SDS011;4744;52.576;13.568;2022-11-23T02:35:18;41.20;;;22.98;;
9409;SDS011;4744;52.576;13.568;2022-11-23T02:37:46;39.40;;;21.75;;
9409;SDS011;4744;52.576;13.568;2022-11-23T02:40:15;38.08;;;22.02;;
9409;SDS011;4744;52.576;13.568;2022-11-23T02:42:48;40.15;;;21.90;;
9409;SDS011;4744;52.576;13.568;2022-11-23T02:45:19;38.05;;;23.02;;
9409;SDS011;4744;52.576;13.568;2022-11-23T02:47:53;36.08;;;21.33;;
9409;SDS011;4744;52.576;13.568;2022-11-23T02:50:21;37.83;;;22.52;;
9409;SDS011;4744;52.576;13.568;2022-11-23T02:52:47;38.58;;;21.85;;
9409;SDS011;4744;52.576;13.568;2022-11-23T02:55:14;37.22;;;21.33;;
9409;SDS011;4744;52.576;13.568;2022-11-23T02:57:41;37.50;;;21.85;;
9409;SDS011;4744;52.576;13.568;2022-11-23T03:00:09;34.28;;;22.02;;
9409;SDS011;4744;52.576;13.568;2022-11-23T03:02:38;43.70;;;23.40;;
9409;SDS011;4744;52.576;13.568;2022-11-23T03:05:05;36.10;;;22.02;;
9409;SDS011;4744;52.576;13.568;2022-11-23T03:07:33;36.50;;;21.33;;
9409;SDS011;4744;52.576;13.568;2022-11-23T03:10:00;40.53;;;22.10;;
9409;SDS011;4744;52.576;13.568;2022-11-23T03:12:26;39.30;;;21.92;;
9409;SDS011;4744;52.576;13.568;2022-11-23T03:14:53;37.67;;;22.20;;
9409;SDS011;4744;52.576;13.568;2022-11-23T03:17:20;39.75;;;21.50;;
9409;SDS011;4744;52.576;13.568;2022-11-23T03:19:49;39.70;;;22.20;;
9409;SDS011;4744;52.576;13.568;2022-11-23T03:22:16;37.25;;;21.20;;
9409;SDS011;4744;52.576;13.568;2022-11-23T03:24:43;39.85;;;22.73;;
9409;SDS011;4744;52.576;13.568;2022-11-23T03:27:10;37.90;;;22.25;;
9409;SDS011;4744;52.576;13.568;2022-11-23T03:29:37;35.10;;;21.35;;
9409;SDS011;4744;52.576;13.568;2022-11-23T03:32:04;39.15;;;20.90;;
9409;SDS011;4744;52.576;13.568;2022-11-23T03:34:31;38.67;;;22.40;;
9409;SDS011;4744;52.576;13.568;2022-11-23T03:36:59;36.15;;;21.05;;
9409;SDS011;4744;52.576;13.568;2022-11-23T03:39:26;40.83;;;21.98;;
9409;SDS011;4744;52.576;13.568;2022-11-23T03:41:53;38.83;;;22.00;;
9409;SDS011;4744;52.576;13.568;2022-11-23T03:44:20;37.10;;;22.15;;
9409;SDS011;4744;52.576;13.568;2022-11-23T03:46:47;37.72;;;21.27;;
9409;SDS011;4744;52.576;13.568;2022-11-23T03:49:15;36.22;;;21.38;;
9409;SDS011;4744;52.576;13.568;2022-11-23T03:51:42;35.67;;;21.70;;
9409;SDS011;4744;52.576;13.568;2022-11-23T03:54:10;36.30;;;21.40;;
9409;SDS011;4744;52.576;13.568;2022-11-23T03:56:37;40.00;;;22.08;;
9409;SDS011;4744;52.576;13.568;2022-11-23T03:59:04;35.50;;;20.83;;
9409;SDS011;4744;52.576;13.568;2022-11-23T04:01:31;34.92;;;20.35;;
9409;SDS011;4744;52.576;13.568;2022-11-23T04:03:58;36.65;;;20.98;;
9409;SDS011;4744;52.576;13.568;2022-11-23T04:06:25;36.10;;;21.58;;
9409;SDS011;4744;52.576;13.568;2022-11-23T04:08:52;36.50;;;20.70;;
9409;SDS011;4744;52.576;13.568;2022-11-23T04:11:20;35.53;;;20.83;;
9409;SDS011;4744;52.576;13.568;2022-11-23T04:13:47;34.58;;;21.08;;
9409;SDS011;4744;52.576;13.568;2022-11-23T04:16:14;32.20;;;20.10;;
9409;SDS011;4744;52.576;13.568;2022-11-23T04:18:41;37.22;;;20.25;;
9409;SDS011;4744;52.576;13.568;2022-11-23T04:21:08;37.65;;;21.25;;
9409;SDS011;4744;52.576;13.568;2022-11-23T04:23:35;35.53;;;21.33;;
9409;SDS011;4744;52.576;13.568;2022-11-23T04:26:02;37.63;;;21.70;;
9409;SDS011;4744;52.576;13.568;2022-11-23T04:28:30;31.58;;;20.10;;
9409;SDS011;4744;52.576;13.568;2022-11-23T04:30:57;37.00;;;20.95;;
9409;SDS011;4744;52.576;13.568;2022-11-23T04:33:24;38.20;;;21.63;;
9409;SDS011;4744;52.576;13.568;2022-11-23T04:35:51;34.70;;;20.50;;
9409;SDS011;4744;52.576;13.568;2022-11-23T04:38:18;37.42;;;20.67;;
9409;SDS011;4744;52.576;13.568;2022-11-23T04:40:45;38.78;;;22.33;;
9409;SDS011;4744;52.576;13.568;2022-11-23T04:43:13;36.85;;;21.38;;
9409;SDS011;4744;52.576;13.568;2022-11-23T04:45:41;34.47;;;21.02;;
9409;SDS011;4744;52.576;13.568;2022-11-23T04:48:08;35.42;;;21.52;;
9409;SDS011;4744;52.576;13.568;2022-11-23T04:50:35;31.52;;;20.88;;
9409;SDS011;4744;52.576;13.568;2022-11-23T04:53:03;35.03;;;20.25;;
9409;SDS011;4744;52.576;13.568;2022-11-23T04:55:30;34.67;;;20.50;;
9409;SDS011;4744;52.576;13.568;2022-11-23T04:57:57;35.95;;;20.83;;
9409;SDS011;4744;52.576;13.568;2022-11-23T05:00:24;36.25;;;21.02;;
9409;SDS011;4744;52.576;13.568;2022-11-23T05:02:53;36.20;;;21.55;;
9409;SDS011;4744;52.576;13.568;2022-11-23T05:05:20;34.55;;;20.13;;
9409;SDS011;4744;52.576;13.568;2022-11-23T05:07:46;30.83;;;19.48;;
9409;SDS011;4744;52.576;13.568;2022-11-23T05:10:13;38.28;;;21.90;;
9409;SDS011;4744;52.576;13.568;2022-11-23T05:12:40;30.05;;;19.02;;
9409;SDS011;4744;52.576;13.568;2022-11-23T05:15:09;33.88;;;21.38;;
9409;SDS011;4744;52.576;13.568;2022-11-23T05:17:38;33.97;;;20.42;;
9409;SDS011;4744;52.576;13.568;2022-11-23T05:20:07;36.80;;;20.35;;
9409;SDS011;4744;52.576;13.568;2022-11-23T05:22:35;36.10;;;21.75;;
9409;SDS011;4744;52.576;13.568;2022-11-23T05:25:02;35.97;;;21.33;;
9409;SDS011;4744;52.576;13.568;2022-11-23T05:27:29;34.85;;;20.52;;
9409;SDS011;4744;52.576;13.568;2022-11-23T05:29:56;34.67;;;20.48;;
9409;SDS011;4744;52.576;13.568;2022-11-23T05:32:22;34.83;;;20.08;;
9409;SDS011;4744;52.576;13.568;2022-11-23T05:34:49;36.83;;;21.05;;
9409;SDS011;4744;52.576;13.568;2022-11-23T05:37:18;34.35;;;20.60;;
9409;SDS011;4744;52.576;13.568;2022-11-23T05:39:47;34.45;;;20.17;;
9409;SDS011;4744;52.576;13.568;2022-11-23T05:42:14;29.63;;;18.83;;
9409;SDS011;4744;52.576;13.568;2022-11-23T05:44:41;33.75;;;21.20;;
9409;SDS011;4744;52.576;13.568;2022-11-23T05:47:08;35.13;;;20.98;;
9409;SDS011;4744;52.576;13.568;2022-11-23T05:49:35;35.00;;;21.10;;
9409;SDS011;4744;52.576;13.568;2022-11-23T05:52:02;36.13;;;21.10;;
9409;SDS011;4744;52.576;13.568;2022-11-23T05:54:31;35.08;;;20.33;;
9409;SDS011;4744;52.576;13.568;2022-11-23T05:56:58;35.78;;;20.08;;
9409;SDS011;4744;52.576;13.568;2022-11-23T05:59:25;35.35;;;21.42;;
9409;SDS011;4744;52.576;13.568;2022-11-23T06:01:52;32.83;;;20.65;;
9409;SDS011;4744;52.576;13.568;2022-11-23T06:04:19;32.72;;;20.10;;
9409;SDS011;4744;52.576;13.568;2022-11-23T06:06:46;29.55;;;18.90;;
9409;SDS011;4744;52.576;13.568;2022-11-23T06:09:13;30.52;;;20.00;;
9409;SDS011;4744;52.576;13.568;2022-11-23T06:11:41;35.47;;;20.45;;
9409;SDS011;4744;52.576;13.568;2022-11-23T06:14:08;34.88;;;20.58;;
9409;SDS011;4744;52.576;13.568;2022-11-23T06:16:35;31.45;;;18.83;;
9409;SDS011;4744;52.576;13.568;2022-11-23T06:19:03;31.08;;;18.85;;
9409;SDS011;4744;52.576;13.568;2022-11-23T06:21:30;32.75;;;19.75;;
9409;SDS011;4744;52.576;13.568;2022-11-23T06:23:57;32.13;;;19.33;;
9409;SDS011;4744;52.576;13.568;2022-11-23T06:26:24;29.40;;;18.85;;
9409;SDS011;4744;52.576;13.568;2022-11-23T06:28:52;30.13;;;20.15;;
9409;SDS011;4744;52.576;13.568;2022-11-23T06:31:19;32.38;;;19.38;;
9409;SDS011;4744;52.576;13.568;2022-11-23T06:33:46;34.27;;;21.27;;
9409;SDS011;4744;52.576;13.568;2022-11-23T06:36:13;30.75;;;19.58;;
9409;SDS011;4744;52.576;13.568;2022-11-23T06:38:40;28.40;;;18.50;;
9409;SDS011;4744;52.576;13.568;2022-11-23T06:41:07;26.55;;;16.50;;
9409;SDS011;4744;52.576;13.568;2022-11-23T06:43:34;27.33;;;18.27;;
9409;SDS011;4744;52.576;13.568;2022-11-23T06:46:03;33.10;;;19.90;;
9409;SDS011;4744;52.576;13.568;2022-11-23T06:48:31;30.75;;;18.90;;
9409;SDS011;4744;52.576;13.568;2022-11-23T06:50:58;29.75;;;18.25;;
9409;SDS011;4744;52.576;13.568;2022-11-23T06:53:27;27.15;;;16.83;;
9409;SDS011;4744;52.576;13.568;2022-11-23T06:55:56;27.20;;;17.60;;
9409;SDS011;4744;52.576;13.568;2022-11-23T06:58:24;27.17;;;16.85;;
9409;SDS011;4744;52.576;13.568;2022-11-23T07:00:51;28.23;;;17.00;;
9409;SDS011;4744;52.576;13.568;2022-11-23T07:03:20;33.78;;;19.27;;
9409;SDS011;4744;52.576;13.568;2022-11-23T07:05:49;30.90;;;19.35;;
9409;SDS011;4744;52.576;13.568;2022-11-23T07:08:16;28.37;;;17.33;;
9409;SDS011;4744;52.576;13.568;2022-11-23T07:10:43;30.50;;;18.63;;
9409;SDS011;4744;52.576;13.568;2022-11-23T07:13:12;32.50;;;19.38;;
9409;SDS011;4744;52.576;13.568;2022-11-23T07:15:39;32.60;;;19.63;;
9409;SDS011;4744;52.576;13.568;2022-11-23T07:18:08;31.80;;;18.38;;
9409;SDS011;4744;52.576;13.568;2022-11-23T07:20:38;30.70;;;19.15;;
9409;SDS011;4744;52.576;13.568;2022-11-23T07:23:06;32.63;;;19.23;;
9409;SDS011;4744;52.576;13.568;2022-11-23T07:25:36;31.10;;;18.90;;
9409;SDS011;4744;52.576;13.568;2022-11-23T07:28:04;31.93;;;19.37;;
9409;SDS011;4744;52.576;13.568;2022-11-23T07:30:32;25.83;;;17.17;;
9409;SDS011;4744;52.576;13.568;2022-11-23T07:33:00;25.83;;;18.13;;
9409;SDS011;4744;52.576;13.568;2022-11-23T07:35:29;26.00;;;17.63;;
9409;SDS011;4744;52.576;13.568;2022-11-23T07:37:58;24.90;;;17.17;;
9409;SDS011;4744;52.576;13.568;2022-11-23T07:40:25;27.85;;;16.67;;
9409;SDS011;4744;52.576;13.568;2022-11-23T07:42:52;23.60;;;16.93;;
9409;SDS011;4744;52.576;13.568;2022-11-23T07:45:24;24.53;;;16.57;;
9409;SDS011;4744;52.576;13.568;2022-11-23T07:47:58;24.67;;;17.37;;
9409;SDS011;4744;52.576;13.568;2022-11-23T07:50:26;27.37;;;17.63;;
9409;SDS011;4744;52.576;13.568;2022-11-23T07:52:53;24.67;;;16.80;;
9409;SDS011;4744;52.576;13.568;2022-11-23T07:55:22;21.90;;;15.63;;
9409;SDS011;4744;52.576;13.568;2022-11-23T07:57:50;26.07;;;17.33;;
9409;SDS011;4744;52.576;13.568;2022-11-23T08:00:18;25.48;;;17.35;;
9409;SDS011;4744;52.576;13.568;2022-11-23T08:02:46;25.30;;;17.53;;
9409;SDS011;4744;52.576;13.568;2022-11-23T08:05:13;27.30;;;18.17;;
9409;SDS011;4744;52.576;13.568;2022-11-23T08:07:41;28.73;;;18.80;;
9409;SDS011;4744;52.576;13.568;2022-11-23T08:10:09;26.73;;;17.53;;
9409;SDS011;4744;52.576;13.568;2022-11-23T08:12:37;28.00;;;18.42;;
9409;SDS011;4744;52.576;13.568;2022-11-23T08:15:05;28.63;;;18.52;;
9409;SDS011;4744;52.576;13.568;2022-11-23T08:17:33;29.83;;;19.90;;
9409;SDS011;4744;52.576;13.568;2022-11-23T08:20:00;29.48;;;20.08;;
9409;SDS011;4744;52.576;13.568;2022-11-23T08:22:27;36.50;;;22.57;;
9409;SDS011;4744;52.576;13.568;2022-11-23T08:24:54;33.63;;;23.70;;
9409;SDS011;4744;52.576;13.568;2022-11-23T08:27:21;37.85;;;24.67;;
9409;SDS011;4744;52.576;13.568;2022-11-23T08:29:49;37.80;;;24.48;;
9409;SDS011;4744;52.576;13.568;2022-11-23T08:32:16;33.10;;;20.77;;
9409;SDS011;4744;52.576;13.568;2022-11-23T08:34:43;29.90;;;19.10;;
9409;SDS011;4744;52.576;13.568;2022-11-23T08:37:10;28.25;;;19.05;;
9409;SDS011;4744;52.576;13.568;2022-11-23T08:39:37;31.38;;;19.23;;
9409;SDS011;4744;52.576;13.568;2022-11-23T08:42:04;32.15;;;21.27;;
9409;SDS011;4744;52.576;13.568;2022-11-23T08:44:31;31.48;;;20.15;;
9409;SDS011;4744;52.576;13.568;2022-11-23T08:46:59;31.23;;;20.08;;
9409;SDS011;4744;52.576;13.568;2022-11-23T08:49:26;31.17;;;19.63;;
9409;SDS011;4744;52.576;13.568;2022-11-23T08:51:53;30.83;;;20.08;;
9409;SDS011;4744;52.576;13.568;2022-11-23T08:54:20;25.42;;;18.40;;
9409;SDS011;4744;52.576;13.568;2022-11-23T08:56:48;24.60;;;16.63;;
9409;SDS011;4744;52.576;13.568;2022-11-23T08:59:15;25.70;;;18.60;;
9409;SDS011;4744;52.576;13.568;2022-11-23T09:01:42;24.27;;;17.70;;
9409;SDS011;4744;52.576;13.568;2022-11-23T09:04:11;21.33;;;15.65;;
9409;SDS011;4744;52.576;13.568;2022-11-23T09:06:38;19.60;;;15.40;;
9409;SDS011;4744;52.576;13.568;2022-11-23T09:09:06;19.02;;;15.20;;
9409;SDS011;4744;52.576;13.568;2022-11-23T09:11:33;16.85;;;14.02;;
9409;SDS011;4744;52.576;13.568;2022-11-23T09:14:00;19.48;;;15.20;;
9409;SDS011;4744;52.576;13.568;2022-11-23T09:16:27;18.98;;;14.02;;
9409;SDS011;4744;52.576;13.568;2022-11-23T09:18:55;18.02;;;13.60;;
9409;SDS011;4744;52.576;13.568;2022-11-23T09:21:23;17.63;;;14.40;;
9409;SDS011;4744;52.576;13.568;2022-11-23T09:23:55;18.35;;;14.68;;
9409;SDS011;4744;52.576;13.568;2022-11-23T09:26:22;18.58;;;14.00;;
9409;SDS011;4744;52.576;13.568;2022-11-23T09:28:49;18.58;;;13.27;;
9409;SDS011;4744;52.576;13.568;2022-11-23T09:31:16;19.20;;;14.75;;
9409;SDS011;4744;52.576;13.568;2022-11-23T09:33:43;17.30;;;13.30;;
9409;SDS011;4744;52.576;13.568;2022-11-23T09:36:10;16.40;;;13.10;;
9409;SDS011;4744;52.576;13.568;2022-11-23T09:38:39;16.98;;;12.73;;
9409;SDS011;4744;52.576;13.568;2022-11-23T09:41:11;16.23;;;13.10;;
9409;SDS011;4744;52.576;13.568;2022-11-23T09:43:50;15.55;;;12.52;;
9409;SDS011;4744;52.576;13.568;2022-11-23T09:46:28;17.30;;;13.27;;
9409;SDS011;4744;52.576;13.568;2022-11-23T09:49:09;15.57;;;13.15;;
9409;SDS011;4744;52.576;13.568;2022-11-23T09:51:39;17.63;;;13.68;;
9409;SDS011;4744;52.576;13.568;2022-11-23T09:54:10;16.27;;;13.77;;
9409;SDS011;4744;52.576;13.568;2022-11-23T09:56:52;18.45;;;13.50;;
9409;SDS011;4744;52.576;13.568;2022-11-23T09:59:36;18.85;;;14.57;;
9409;SDS011;4744;52.576;13.568;2022-11-23T10:02:08;18.67;;;13.70;;
9409;SDS011;4744;52.576;13.568;2022-11-23T10:04:44;15.77;;;13.20;;
9409;SDS011;4744;52.576;13.568;2022-11-23T10:07:22;21.73;;;14.45;;
9409;SDS011;4744;52.576;13.568;2022-11-23T10:10:02;20.13;;;14.60;;
9409;SDS011;4744;52.576;13.568;2022-11-23T10:12:40;19.98;;;13.63;;
9409;SDS011;4744;52.576;13.568;2022-11-23T10:15:14;19.15;;;14.38;;
9409;SDS011;4744;52.576;13.568;2022-11-23T10:17:57;18.83;;;14.75;;
9409;SDS011;4744;52.576;13.568;2022-11-23T10:20:36;22.25;;;16.17;;
9409;SDS011;4744;52.576;13.568;2022-11-23T10:23:25;18.77;;;14.25;;
9409;SDS011;4744;52.576;13.568;2022-11-23T10:26:01;20.13;;;14.63;;
9409;SDS011;4744;52.576;13.568;2022-11-23T10:28:28;19.00;;;13.52;;
9409;SDS011;4744;52.576;13.568;2022-11-23T10:31:00;19.10;;;14.43;;
9409;SDS011;4744;52.576;13.568;2022-11-23T10:33:36;16.92;;;13.15;;
9409;SDS011;4744;52.576;13.568;2022-11-23T10:36:11;19.10;;;14.10;;
9409;SDS011;4744;52.576;13.568;2022-11-23T10:38:38;19.85;;;13.82;;
9409;SDS011;4744;52.576;13.568;2022-11-23T10:41:08;21.50;;;14.32;;
9409;SDS011;4744;52.576;13.568;2022-11-23T10:43:37;17.70;;;13.25;;
9409;SDS011;4744;52.576;13.568;2022-11-23T10:46:23;16.88;;;13.25;;
9409;SDS011;4744;52.576;13.568;2022-11-23T10:48:52;17.48;;;13.77;;
9409;SDS011;4744;52.576;13.568;2022-11-23T10:51:21;17.02;;;13.40;;
9409;SDS011;4744;52.576;13.568;2022-11-23T10:53:54;17.83;;;12.95;;
9409;SDS011;4744;52.576;13.568;2022-11-23T10:56:24;18.92;;;13.82;;
9409;SDS011;4744;52.576;13.568;2022-11-23T10:58:52;15.27;;;12.63;;
9409;SDS011;4744;52.576;13.568;2022-11-23T11:01:20;17.98;;;13.38;;
9409;SDS011;4744;52.576;13.568;2022-11-23T11:03:52;16.73;;;13.45;;
9409;SDS011;4744;52.576;13.568;2022-11-23T11:06:20;18.52;;;13.85;;
9409;SDS011;4744;52.576;13.568;2022-11-23T11:08:50;16.77;;;12.88;;
9409;SDS011;4744;52.576;13.568;2022-11-23T11:11:23;15.07;;;12.13;;
9409;SDS011;4744;52.576;13.568;2022-11-23T11:14:03;18.00;;;12.63;;
9409;SDS011;4744;52.576;13.568;2022-11-23T11:16:32;13.40;;;11.88;;
9409;SDS011;4744;52.576;13.568;2022-11-23T11:19:19;15.48;;;12.77;;
9409;SDS011;4744;52.576;13.568;2022-11-23T11:21:48;14.70;;;12.35;;
9409;SDS011;4744;52.576;13.568;2022-11-23T11:24:15;17.23;;;12.90;;
9409;SDS011;4744;52.576;13.568;2022-11-23T11:26:47;16.75;;;11.93;;
9409;SDS011;4744;52.576;13.568;2022-11-23T11:29:23;15.90;;;11.85;;
9409;SDS011;4744;52.576;13.568;2022-11-23T11:31:58;16.25;;;12.23;;
9409;SDS011;4744;52.576;13.568;2022-11-23T11:34:30;17.15;;;12.60;;
9409;SDS011;4744;52.576;13.568;2022-11-23T11:37:01;15.90;;;13.25;;
9409;SDS011;4744;52.576;13.568;2022-11-23T11:39:36;17.52;;;13.07;;
9409;SDS011;4744;52.576;13.568;2022-11-23T11:42:12;17.65;;;12.23;;
9409;SDS011;4744;52.576;13.568;2022-11-23T11:44:43;15.75;;;12.38;;
9409;SDS011;4744;52.576;13.568;2022-11-23T11:47:16;16.30;;;12.27;;
9409;SDS011;4744;52.576;13.568;2022-11-23T11:49:49;16.08;;;12.25;;
9409;SDS011;4744;52.576;13.568;2022-11-23T11:52:20;16.70;;;12.52;;
9409;SDS011;4744;52.576;13.568;2022-11-23T11:54:50;17.38;;;12.40;;
9409;SDS011;4744;52.576;13.568;2022-11-23T11:57:24;15.40;;;12.15;;
9409;SDS011;4744;52.576;13.568;2022-11-23T11:59:56;16.02;;;12.27;;
9409;SDS011;4744;52.576;13.568;2022-11-23T12:02:27;15.02;;;12.90;;
9409;SDS011;4744;52.576;13.568;2022-11-23T12:05:00;14.88;;;12.48;;
9409;SDS011;4744;52.576;13.568;2022-11-23T12:07:35;15.40;;;11.95;;
9409;SDS011;4744;52.576;13.568;2022-11-23T12:10:10;15.45;;;12.32;;
9409;SDS011;4744;52.576;13.568;2022-11-23T12:12:42;16.23;;;12.82;;
9409;SDS011;4744;52.576;13.568;2022-11-23T12:15:12;14.75;;;11.52;;
9409;SDS011;4744;52.576;13.568;2022-11-23T12:17:48;16.58;;;12.25;;
9409;SDS011;4744;52.576;13.568;2022-11-23T12:20:32;15.05;;;12.52;;
9409;SDS011;4744;52.576;13.568;2022-11-23T12:23:12;14.75;;;11.40;;
9409;SDS011;4744;52.576;13.568;2022-11-23T12:25:49;16.10;;;11.98;;
9409;SDS011;4744;52.576;13.568;2022-11-23T12:28:33;17.27;;;12.27;;
9409;SDS011;4744;52.576;13.568;2022-11-23T12:31:24;17.02;;;12.02;;
9409;SDS011;4744;52.576;13.568;2022-11-23T12:34:13;18.02;;;12.88;;
9409;SDS011;4744;52.576;13.568;2022-11-23T12:36:52;15.45;;;12.48;;
9409;SDS011;4744;52.576;13.568;2022-11-23T12:39:40;16.27;;;12.18;;
9409;SDS011;4744;52.576;13.568;2022-11-23T12:42:31;14.90;;;11.48;;
9409;SDS011;4744;52.576;13.568;2022-11-23T12:45:17;15.35;;;12.82;;
9409;SDS011;4744;52.576;13.568;2022-11-23T12:47:56;15.82;;;12.13;;
9409;SDS011;4744;52.576;13.568;2022-11-23T12:50:29;16.70;;;12.65;;
9409;SDS011;4744;52.576;13.568;2022-11-23T12:53:06;14.23;;;11.43;;
9409;SDS011;4744;52.576;13.568;2022-11-23T12:55:48;15.20;;;12.18;;
9409;SDS011;4744;52.576;13.568;2022-11-23T12:58:20;17.70;;;13.32;;
9409;SDS011;4744;52.576;13.568;2022-11-23T13:00:53;16.02;;;12.50;;
9409;SDS011;4744;52.576;13.568;2022-11-23T13:06:25;15.10;;;11.75;;
9409;SDS011;4744;52.576;13.568;2022-11-23T13:09:19;13.85;;;11.60;;
9409;SDS011;4744;52.576;13.568;2022-11-23T13:12:13;14.07;;;11.50;;
9409;SDS011;4744;52.576;13.568;2022-11-23T13:14:54;16.20;;;11.80;;
9409;SDS011;4744;52.576;13.568;2022-11-23T13:17:39;16.10;;;12.02;;
9409;SDS011;4744;52.576;13.568;2022-11-23T13:20:25;16.15;;;12.55;;
9409;SDS011;4744;52.576;13.568;2022-11-23T13:23:07;17.40;;;12.30;;
9409;SDS011;4744;52.576;13.568;2022-11-23T13:25:35;15.68;;;11.40;;
9409;SDS011;4744;52.576;13.568;2022-11-23T13:28:02;17.55;;;12.23;;
9409;SDS011;4744;52.576;13.568;2022-11-23T13:30:31;15.05;;;11.23;;
9409;SDS011;4744;52.576;13.568;2022-11-23T13:33:02;15.25;;;12.18;;
9409;SDS011;4744;52.576;13.568;2022-11-23T13:35:54;17.77;;;12.27;;
9409;SDS011;4744;52.576;13.568;2022-11-23T13:38:26;14.82;;;12.45;;
9409;SDS011;4744;52.576;13.568;2022-11-23T13:44:10;16.08;;;12.60;;
9409;SDS011;4744;52.576;13.568;2022-11-23T13:46:42;16.90;;;12.88;;
9409;SDS011;4744;52.576;13.568;2022-11-23T13:52:19;16.00;;;13.30;;
9409;SDS011;4744;52.576;13.568;2022-11-23T13:54:53;16.95;;;13.30;;
9409;SDS011;4744;52.576;13.568;2022-11-23T13:57:22;18.85;;;14.90;;
9409;SDS011;4744;52.576;13.568;2022-11-23T13:59:49;16.85;;;14.15;;
9409;SDS011;4744;52.576;13.568;2022-11-23T14:08:14;21.33;;;17.13;;
9409;SDS011;4744;52.576;13.568;2022-11-23T14:10:43;19.30;;;15.45;;
9409;SDS011;4744;52.576;13.568;2022-11-23T14:13:12;21.10;;;15.73;;
9409;SDS011;4744;52.576;13.568;2022-11-23T14:15:44;21.10;;;16.67;;
9409;SDS011;4744;52.576;13.568;2022-11-23T14:21:28;20.25;;;15.50;;
9409;SDS011;4744;52.576;13.568;2022-11-23T14:27:09;20.92;;;16.23;;
9409;SDS011;4744;52.576;13.568;2022-11-23T14:30:02;20.65;;;15.73;;
9409;SDS011;4744;52.576;13.568;2022-11-23T14:32:35;23.92;;;18.48;;
9409;SDS011;4744;52.576;13.568;2022-11-23T14:35:19;20.65;;;16.95;;
9409;SDS011;4744;52.576;13.568;2022-11-23T14:38:00;24.98;;;18.55;;
9409;SDS011;4744;52.576;13.568;2022-11-23T14:40:56;24.05;;;18.05;;
9409;SDS011;4744;52.576;13.568;2022-11-23T14:43:29;22.50;;;17.42;;
9409;SDS011;4744;52.576;13.568;2022-11-23T14:45:59;21.80;;;17.38;;
9409;SDS011;4744;52.576;13.568;2022-11-23T14:48:27;21.73;;;17.40;;
9409;SDS011;4744;52.576;13.568;2022-11-23T14:50:55;21.23;;;16.52;;
9409;SDS011;4744;52.576;13.568;2022-11-23T14:53:27;20.80;;;15.82;;
9409;SDS011;4744;52.576;13.568;2022-11-23T14:55:56;23.38;;;18.67;;
9409;SDS011;4744;52.576;13.568;2022-11-23T14:58:23;23.40;;;16.83;;
9409;SDS011;4744;52.576;13.568;2022-11-23T15:00:52;22.27;;;17.15;;
9409;SDS011;4744;52.576;13.568;2022-11-23T15:03:26;24.48;;;18.08;;
9409;SDS011;4744;52.576;13.568;2022-11-23T15:05:56;27.70;;;21.10;;
9409;SDS011;4744;52.576;13.568;2022-11-23T15:08:31;27.58;;;18.58;;
9409;SDS011;4744;52.576;13.568;2022-11-23T15:11:07;27.60;;;19.42;;
9409;SDS011;4744;52.576;13.568;2022-11-23T15:13:40;26.35;;;19.50;;